Time;durP1;ratioP1;P1;durP2;ratioP2;P2;SDS_P1;SDS_P2;PMS_P1;PMS_P2;Temp;Humidity;BMP_temperature;BMP_pressure;BME280_temperature;BME280_humidity;BME280_pressure;Samples;Min_cycle;Max_cycle;Signal;HPM_P1;HPM_P2
2024/02/14 00:00:15;;;;;;;25.92;11.75;;;;;;;;;;5070146;28;20028;-74
2024/02/14 00:03:01;;;;;;;31.95;12.07;;;;;;;;;;5056881;28;20054;-73
2024/02/14 00:05:46;;;;;;;29.25;11.95;;;;;;;;;;5057030;28;20093;-74
2024/02/14 00:08:32;;;;;;;30.58;12.05;;;;;;;;;;5071997;28;20017;-74
2024/02/14 00:11:18;;;;;;;31.05;11.45;;;;;;;;;;5057664;28;20130;-74
2024/02/14 00:14:03;;;;;;;29.58;11.57;;;;;;;;;;5070695;28;20032;-74
2024/02/14 00:16:50;;;;;;;31.25;12.20;;;;;;;;;;5043959;28;20025;-74
2024/02/14 00:19:36;;;;;;;28.55;12.05;;;;;;;;;;5071621;28;20078;-73
2024/02/14 00:22:21;;;;;;;28.25;11.73;;;;;;;;;;5071799;28;20482;-74
2024/02/14 00:25:07;;;;;;;28.27;11.73;;;;;;;;;;5070730;28;20045;-74
2024/02/14 00:27:54;;;;;;;30.60;11.95;;;;;;;;;;5057654;28;20021;-74
2024/02/14 00:30:48;;;;;;;33.67;12.80;;;;;;;;;;5072437;28;20020;-74
2024/02/14 00:33:34;;;;;;;28.50;11.48;;;;;;;;;;5071268;28;20512;-74
2024/02/14 00:36:19;;;;;;;34.75;13.07;;;;;;;;;;5058301;28;20409;-74
2024/02/14 00:39:08;;;;;;;29.10;11.77;;;;;;;;;;5072383;28;20067;-74
2024/02/14 00:41:55;;;;;;;27.17;11.77;;;;;;;;;;5052757;28;20102;-74
2024/02/14 00:44:40;;;;;;;24.80;10.45;;;;;;;;;;5052756;28;20021;-74
2024/02/14 00:47:26;;;;;;;27.48;11.20;;;;;;;;;;5068869;28;20451;-74
2024/02/14 00:50:13;;;;;;;28.35;10.70;;;;;;;;;;5071448;28;20025;-73
2024/02/14 00:52:59;;;;;;;30.45;11.40;;;;;;;;;;5072450;28;20507;-74
2024/02/14 00:55:45;;;;;;;24.08;11.00;;;;;;;;;;5043338;28;20024;-73
2024/02/14 00:58:31;;;;;;;28.15;11.57;;;;;;;;;;5070783;28;20512;-74
2024/02/14 01:01:17;;;;;;;23.73;12.63;;;;;;;;;;5071061;28;20042;-74
2024/02/14 01:04:03;;;;;;;20.25;10.30;;;;;;;;;;5070312;28;20059;-74
2024/02/14 01:06:49;;;;;;;20.75;10.02;;;;;;;;;;5070310;28;20029;-74
2024/02/14 01:09:36;;;;;;;24.90;10.73;;;;;;;;;;5071153;28;20028;-74
2024/02/14 01:12:21;;;;;;;24.98;9.30;;;;;;;;;;5045089;23;20052;-74
2024/02/14 01:15:07;;;;;;;22.35;10.38;;;;;;;;;;5052051;28;20029;-73
2024/02/14 01:17:53;;;;;;;21.15;9.15;;;;;;;;;;5037563;28;20020;-74
2024/02/14 01:20:39;;;;;;;21.67;8.68;;;;;;;;;;5052119;28;20025;-74
2024/02/14 01:23:25;;;;;;;19.38;10.00;;;;;;;;;;5041645;28;20398;-74
2024/02/14 01:26:10;;;;;;;20.95;8.50;;;;;;;;;;5037535;28;20029;-74
2024/02/14 01:28:56;;;;;;;24.30;9.93;;;;;;;;;;5039688;28;20029;-74
2024/02/14 01:31:42;;;;;;;22.40;9.68;;;;;;;;;;5009750;28;20026;-73
2024/02/14 01:34:31;;;;;;;20.35;9.13;;;;;;;;;;5051392;28;20095;-74
2024/02/14 01:37:16;;;;;;;18.65;9.27;;;;;;;;;;5036803;28;20026;-74
2024/02/14 01:40:03;;;;;;;19.67;9.50;;;;;;;;;;5021483;28;20049;-74
2024/02/14 01:42:49;;;;;;;22.13;9.27;;;;;;;;;;5054835;28;20029;-74
2024/02/14 01:45:34;;;;;;;22.70;10.23;;;;;;;;;;5041511;28;20082;-74
2024/02/14 01:48:20;;;;;;;26.33;10.80;;;;;;;;;;5049273;28;20029;-74
2024/02/14 01:51:08;;;;;;;22.75;9.75;;;;;;;;;;5055516;28;20021;-74
2024/02/14 01:53:54;;;;;;;18.20;8.75;;;;;;;;;;5039034;28;20026;-73
2024/02/14 01:56:40;;;;;;;24.05;9.48;;;;;;;;;;5052050;28;20448;-73
2024/02/14 01:59:26;;;;;;;19.80;8.82;;;;;;;;;;5012342;28;20083;-74
2024/02/14 02:02:13;;;;;;;23.65;11.10;;;;;;;;;;5038518;28;20027;-73
2024/02/14 02:04:58;;;;;;;18.75;8.80;;;;;;;;;;5041625;28;20029;-74
2024/02/14 02:07:48;;;;;;;21.27;9.68;;;;;;;;;;5046215;28;20029;-74
2024/02/14 02:10:33;;;;;;;20.05;8.63;;;;;;;;;;5022201;28;20067;-73
2024/02/14 02:13:20;;;;;;;22.85;9.07;;;;;;;;;;5047136;28;20158;-74
2024/02/14 02:16:06;;;;;;;18.42;9.05;;;;;;;;;;5053184;28;20033;-74
2024/02/14 02:18:52;;;;;;;21.08;11.20;;;;;;;;;;5053439;28;20033;-74
2024/02/14 02:21:38;;;;;;;23.25;10.13;;;;;;;;;;5054190;28;20033;-74
2024/02/14 02:24:24;;;;;;;21.05;8.90;;;;;;;;;;5040023;28;20463;-74
2024/02/14 02:27:13;;;;;;;23.35;9.90;;;;;;;;;;5055483;28;20086;-74
2024/02/14 02:30:00;;;;;;;20.13;9.60;;;;;;;;;;5040682;28;20021;-74
2024/02/14 02:32:46;;;;;;;27.40;10.63;;;;;;;;;;5071471;28;20105;-74
2024/02/14 02:35:32;;;;;;;24.95;10.52;;;;;;;;;;5051933;28;20494;-74
2024/02/14 02:38:17;;;;;;;23.15;12.07;;;;;;;;;;5055889;28;20021;-74
2024/02/14 02:41:06;;;;;;;22.65;10.50;;;;;;;;;;5052749;28;20120;-73
2024/02/14 02:43:54;;;;;;;27.67;11.30;;;;;;;;;;5038934;28;20025;-74
2024/02/14 02:46:39;;;;;;;21.10;11.18;;;;;;;;;;5055198;28;20556;-74
2024/02/14 02:49:29;;;;;;;27.40;11.60;;;;;;;;;;5042158;28;20103;-74
2024/02/14 02:52:14;;;;;;;30.15;13.60;;;;;;;;;;5035806;28;20163;-74
2024/02/14 02:55:04;;;;;;;22.50;11.48;;;;;;;;;;5050361;28;20040;-74
2024/02/14 02:57:52;;;;;;;24.88;12.00;;;;;;;;;;5039686;28;20509;-73
2024/02/14 03:00:38;;;;;;;23.13;11.75;;;;;;;;;;5034050;28;20138;-74
2024/02/14 03:03:25;;;;;;;25.90;11.55;;;;;;;;;;5054413;28;20021;-73
2024/02/14 03:06:12;;;;;;;22.67;11.48;;;;;;;;;;5053339;28;20098;-74
2024/02/14 03:08:57;;;;;;;25.15;11.40;;;;;;;;;;5052363;28;20048;-73
2024/02/14 03:11:47;;;;;;;28.98;12.93;;;;;;;;;;5032446;23;20037;-74
2024/02/14 03:14:33;;;;;;;22.08;12.13;;;;;;;;;;5052892;28;20094;-74
2024/02/14 03:17:19;;;;;;;26.20;12.50;;;;;;;;;;5043179;28;20025;-74
2024/02/14 03:20:14;;;;;;;24.70;12.38;;;;;;;;;;5046423;28;20028;-74
2024/02/14 03:22:59;;;;;;;25.25;12.70;;;;;;;;;;5041518;28;20478;-74
2024/02/14 03:25:45;;;;;;;24.05;12.18;;;;;;;;;;5052919;28;20083;-73
2024/02/14 03:28:31;;;;;;;28.98;12.43;;;;;;;;;;5052663;28;20537;-74
2024/02/14 03:31:16;;;;;;;23.63;12.70;;;;;;;;;;5044019;28;20398;-74
2024/02/14 03:34:02;;;;;;;28.52;13.38;;;;;;;;;;5048753;28;20025;-74
2024/02/14 03:36:48;;;;;;;25.88;13.35;;;;;;;;;;5053621;28;20053;-74
2024/02/14 03:39:33;;;;;;;30.90;13.85;;;;;;;;;;5023810;28;20035;-74
2024/02/14 03:42:19;;;;;;;27.48;12.43;;;;;;;;;;5052523;28;20032;-74
2024/02/14 03:45:06;;;;;;;30.85;14.35;;;;;;;;;;5043454;28;20074;-74
2024/02/14 03:47:52;;;;;;;24.27;13.52;;;;;;;;;;5018502;28;20049;-74
2024/02/14 03:50:42;;;;;;;28.38;14.10;;;;;;;;;;5026178;28;20063;-74
2024/02/14 03:53:28;;;;;;;;;;;;;;;;;;5052559;28;20028;-74
2024/02/14 03:56:16;;;;;;;34.65;14.93;;;;;;;;;;5051424;28;19917;-74
2024/02/14 03:59:02;;;;;;;29.05;14.82;;;;;;;;;;5035090;28;20508;-73
2024/02/14 04:01:49;;;;;;;30.13;13.90;;;;;;;;;;5032130;28;20117;-74
2024/02/14 04:04:35;;;;;;;30.13;13.98;;;;;;;;;;5035302;28;20551;-74
2024/02/14 04:07:22;;;;;;;32.15;14.27;;;;;;;;;;5047921;28;20064;-74
2024/02/14 04:10:08;;;;;;;31.50;15.93;;;;;;;;;;5050901;28;20021;-73
2024/02/14 04:12:54;;;;;;;33.25;14.45;;;;;;;;;;5052341;28;20108;-73
2024/02/14 04:15:40;;;;;;;28.30;15.57;;;;;;;;;;5050696;28;20486;-73
2024/02/14 04:18:29;;;;;;;35.22;15.80;;;;;;;;;;5042309;28;20116;-74
2024/02/14 04:21:14;;;;;;;28.92;14.88;;;;;;;;;;5017700;28;20033;-73
2024/02/14 04:24:00;;;;;;;30.90;14.73;;;;;;;;;;5039624;28;20075;-74
2024/02/14 04:26:48;;;;;;;28.23;14.10;;;;;;;;;;5031573;28;20108;-74
2024/02/14 04:29:35;;;;;;;36.22;15.13;;;;;;;;;;5033007;28;20031;-74
2024/02/14 04:32:20;;;;;;;33.35;14.50;;;;;;;;;;5024553;28;20163;-74
2024/02/14 04:35:06;;;;;;;31.98;14.23;;;;;;;;;;5051841;28;20033;-74
2024/02/14 04:37:52;;;;;;;32.20;15.02;;;;;;;;;;5035786;28;20047;-73
2024/02/14 04:40:40;;;;;;;33.33;14.27;;;;;;;;;;5005369;28;20149;-74
2024/02/14 04:43:29;;;;;;;31.63;15.38;;;;;;;;;;5017484;28;20387;-74
2024/02/14 04:46:14;;;;;;;34.58;14.80;;;;;;;;;;5021971;28;20120;-74
2024/02/14 04:49:02;;;;;;;37.90;16.67;;;;;;;;;;5017956;28;20032;-74
2024/02/14 04:51:48;;;;;;;35.03;14.50;;;;;;;;;;5028238;28;20112;-74
2024/02/14 04:54:34;;;;;;;34.35;16.38;;;;;;;;;;5038701;28;20103;-74
2024/02/14 04:57:20;;;;;;;33.95;15.98;;;;;;;;;;5035042;28;20037;-74
2024/02/14 05:00:08;;;;;;;35.58;15.55;;;;;;;;;;5042187;28;20095;-74
2024/02/14 05:02:57;;;;;;;31.52;15.70;;;;;;;;;;5045674;28;20071;-74
2024/02/14 05:05:43;;;;;;;39.38;16.38;;;;;;;;;;5055566;28;20021;-76
2024/02/14 05:08:29;;;;;;;33.70;16.70;;;;;;;;;;5053138;28;20104;-74
2024/02/14 05:11:14;;;;;;;36.42;14.63;;;;;;;;;;5073805;23;20040;-73
2024/02/14 05:14:01;;;;;;;30.90;14.70;;;;;;;;;;5075286;28;20016;-74
2024/02/14 05:16:47;;;;;;;35.67;15.80;;;;;;;;;;5048152;28;20028;-74
2024/02/14 05:19:32;;;;;;;31.58;15.48;;;;;;;;;;5060681;28;20512;-74
2024/02/14 05:22:18;;;;;;;41.33;16.85;;;;;;;;;;5069101;28;20025;-74
2024/02/14 05:25:04;;;;;;;30.98;14.65;;;;;;;;;;5056131;28;20017;-74
2024/02/14 05:27:50;;;;;;;33.60;15.52;;;;;;;;;;5054270;28;20025;-74
2024/02/14 05:30:36;;;;;;;32.05;15.70;;;;;;;;;;5055001;28;20032;-73
2024/02/14 05:33:24;;;;;;;37.85;14.95;;;;;;;;;;5063002;28;20490;-74
2024/02/14 05:36:10;;;;;;;36.70;15.48;;;;;;;;;;5066672;28;20045;-74
2024/02/14 05:38:55;;;;;;;33.97;15.38;;;;;;;;;;5040462;28;20105;-74
2024/02/14 05:41:41;;;;;;;34.70;14.93;;;;;;;;;;5054981;28;20120;-74
2024/02/14 05:44:30;;;;;;;32.38;14.30;;;;;;;;;;5058212;28;20017;-74
2024/02/14 05:47:18;;;;;;;33.60;15.43;;;;;;;;;;5060853;28;20020;-74
2024/02/14 05:50:05;;;;;;;35.40;15.35;;;;;;;;;;5068079;28;20497;-74
2024/02/14 05:52:51;;;;;;;30.73;13.10;;;;;;;;;;5021499;28;20021;-74
2024/02/14 05:55:39;;;;;;;33.38;14.68;;;;;;;;;;5024650;28;20025;-74
2024/02/14 05:58:27;;;;;;;29.52;14.35;;;;;;;;;;5040845;28;20100;-74
2024/02/14 06:01:12;;;;;;;32.75;14.85;;;;;;;;;;5055692;28;20114;-73
2024/02/14 06:03:58;;;;;;;33.85;14.60;;;;;;;;;;5060983;28;20013;-74
2024/02/14 06:06:47;;;;;;;29.33;14.38;;;;;;;;;;5054758;28;20474;-74
2024/02/14 06:09:32;;;;;;;33.22;14.30;;;;;;;;;;5051782;28;20025;-74
2024/02/14 06:12:18;;;;;;;30.10;13.52;;;;;;;;;;5042809;28;20063;-74
2024/02/14 06:15:04;;;;;;;32.72;13.98;;;;;;;;;;5039373;28;20102;-74
2024/02/14 06:17:49;;;;;;;31.33;12.63;;;;;;;;;;5054309;28;20126;-74
2024/02/14 06:20:35;;;;;;;26.98;12.63;;;;;;;;;;5025689;28;20025;-74
2024/02/14 06:23:21;;;;;;;33.10;14.07;;;;;;;;;;5055216;28;20017;-73
2024/02/14 06:26:06;;;;;;;27.65;12.15;;;;;;;;;;5007709;28;20494;-74
2024/02/14 06:28:54;;;;;;;29.88;12.43;;;;;;;;;;5024696;28;20104;-74
2024/02/14 06:31:40;;;;;;;26.10;12.52;;;;;;;;;;5057113;28;20071;-74
2024/02/14 06:34:28;;;;;;;29.17;12.55;;;;;;;;;;5033110;28;20033;-74
2024/02/14 06:37:13;;;;;;;28.40;12.05;;;;;;;;;;5007886;28;20384;-73
2024/02/14 06:39:59;;;;;;;32.65;13.85;;;;;;;;;;5055544;28;20051;-73
2024/02/14 06:42:44;;;;;;;25.40;11.82;;;;;;;;;;5073260;28;20027;-74
2024/02/14 06:45:30;;;;;;;29.67;11.98;;;;;;;;;;5045487;28;20108;-75
2024/02/14 06:48:16;;;;;;;26.42;11.75;;;;;;;;;;5039169;28;20108;-74
2024/02/14 06:51:01;;;;;;;23.20;11.65;;;;;;;;;;5024603;28;20494;-74
2024/02/14 06:53:47;;;;;;;26.67;12.27;;;;;;;;;;5039232;28;20032;-74
2024/02/14 06:56:32;;;;;;;25.20;11.65;;;;;;;;;;5056207;28;20024;-74
2024/02/14 06:59:18;;;;;;;27.80;12.45;;;;;;;;;;5039721;28;20268;-74
2024/02/14 07:02:05;;;;;;;28.67;12.65;;;;;;;;;;5028175;28;20035;-74
2024/02/14 07:04:51;;;;;;;32.53;13.00;;;;;;;;;;5038376;28;20071;-74
2024/02/14 07:07:37;;;;;;;29.10;12.20;;;;;;;;;;5038565;28;20082;-74
2024/02/14 07:10:23;;;;;;;31.00;13.32;;;;;;;;;;5050184;28;20024;-73
2024/02/14 07:13:08;;;;;;;23.40;11.68;;;;;;;;;;5072630;28;20111;-74
2024/02/14 07:15:54;;;;;;;25.98;12.38;;;;;;;;;;5057591;28;20068;-74
2024/02/14 07:18:40;;;;;;;22.65;10.85;;;;;;;;;;5038942;28;20020;-74
2024/02/14 07:21:25;;;;;;;25.10;12.23;;;;;;;;;;5052805;28;20029;-74
2024/02/14 07:24:11;;;;;;;24.85;11.20;;;;;;;;;;5042584;28;20024;-74
2024/02/14 07:26:57;;;;;;;27.27;11.52;;;;;;;;;;5039052;28;20063;-74
2024/02/14 07:29:42;;;;;;;24.05;11.38;;;;;;;;;;5061627;28;20017;-74
2024/02/14 07:32:28;;;;;;;24.48;11.48;;;;;;;;;;5051143;28;20078;-75
2024/02/14 07:35:14;;;;;;;22.80;10.52;;;;;;;;;;5072402;28;20021;-74
2024/02/14 07:37:59;;;;;;;26.17;11.30;;;;;;;;;;5052924;28;20029;-74
2024/02/14 07:40:45;;;;;;;23.85;9.88;;;;;;;;;;5056601;28;20080;-74
2024/02/14 07:43:30;;;;;;;24.80;10.95;;;;;;;;;;5038103;28;20021;-74
2024/02/14 07:46:20;;;;;;;25.67;11.05;;;;;;;;;;5039178;28;20021;-73
2024/02/14 07:49:06;;;;;;;22.92;11.02;;;;;;;;;;5023383;28;20029;-74
2024/02/14 07:51:51;;;;;;;20.17;9.77;;;;;;;;;;5032666;28;20032;-74
2024/02/14 07:54:37;;;;;;;20.10;10.15;;;;;;;;;;5033634;28;20022;-74
2024/02/14 07:57:24;;;;;;;23.30;11.07;;;;;;;;;;5037740;28;20021;-73
2024/02/14 08:00:10;;;;;;;28.08;11.57;;;;;;;;;;5052581;28;20055;-73
2024/02/14 08:02:56;;;;;;;21.80;10.70;;;;;;;;;;5068338;28;20025;-73
2024/02/14 08:05:42;;;;;;;22.77;9.63;;;;;;;;;;5071865;28;20481;-73
2024/02/14 08:08:28;;;;;;;23.40;10.65;;;;;;;;;;5049708;28;20029;-73
2024/02/14 08:11:14;;;;;;;19.95;10.15;;;;;;;;;;5057300;28;20071;-73
2024/02/14 08:14:00;;;;;;;24.63;10.48;;;;;;;;;;5065896;28;20025;-73
2024/02/14 08:16:45;;;;;;;23.58;10.43;;;;;;;;;;5072279;28;20403;-73
2024/02/14 08:19:31;;;;;;;19.88;10.25;;;;;;;;;;5052063;28;20020;-73
2024/02/14 08:22:17;;;;;;;25.92;10.85;;;;;;;;;;5037895;28;20028;-74
2024/02/14 08:25:03;;;;;;;19.50;9.50;;;;;;;;;;5038030;28;20108;-73
2024/02/14 08:27:48;;;;;;;22.27;10.05;;;;;;;;;;5053047;28;20056;-73
2024/02/14 08:30:34;;;;;;;21.50;10.25;;;;;;;;;;5037473;28;20020;-73
2024/02/14 08:33:20;;;;;;;24.92;10.35;;;;;;;;;;5067382;28;20035;-73
2024/02/14 08:36:06;;;;;;;21.80;10.25;;;;;;;;;;5057307;28;20024;-73
2024/02/14 08:38:52;;;;;;;24.63;11.32;;;;;;;;;;5040435;28;20037;-73
2024/02/14 08:41:38;;;;;;;20.70;9.10;;;;;;;;;;5051916;28;20028;-73
2024/02/14 08:44:24;;;;;;;25.35;11.30;;;;;;;;;;5036875;28;20107;-73
2024/02/14 08:47:10;;;;;;;22.40;10.55;;;;;;;;;;5051433;28;20027;-74
2024/02/14 08:49:56;;;;;;;21.33;11.25;;;;;;;;;;5051554;28;20024;-74
2024/02/14 08:52:41;;;;;;;24.40;11.25;;;;;;;;;;5023960;28;20025;-74
2024/02/14 08:55:27;;;;;;;20.45;10.60;;;;;;;;;;5051974;28;20064;-74
2024/02/14 08:58:12;;;;;;;24.73;12.13;;;;;;;;;;5033609;28;20108;-73
2024/02/14 09:00:58;;;;;;;25.38;11.52;;;;;;;;;;5024921;28;20021;-73
2024/02/14 09:03:47;;;;;;;22.02;9.73;;;;;;;;;;5052645;28;20024;-74
2024/02/14 09:06:32;;;;;;;22.63;10.05;;;;;;;;;;5024822;28;20036;-73
2024/02/14 09:09:19;;;;;;;25.25;10.52;;;;;;;;;;5051866;28;20386;-74
2024/02/14 09:12:05;;;;;;;19.70;9.40;;;;;;;;;;5037259;28;20482;-73
2024/02/14 09:14:51;;;;;;;19.13;9.40;;;;;;;;;;5032083;28;20032;-73
2024/02/14 09:17:38;;;;;;;23.15;10.65;;;;;;;;;;5031943;28;20102;-73
2024/02/14 09:20:23;;;;;;;24.08;10.38;;;;;;;;;;5033737;28;20025;-73
2024/02/14 09:23:09;;;;;;;21.02;10.15;;;;;;;;;;5052157;28;20025;-73
2024/02/14 09:25:55;;;;;;;19.25;9.52;;;;;;;;;;5052070;28;20029;-73
2024/02/14 09:28:40;;;;;;;17.63;9.25;;;;;;;;;;5036758;28;20025;-73
2024/02/14 09:31:26;;;;;;;18.67;9.38;;;;;;;;;;5037627;28;20029;-73
2024/02/14 09:34:13;;;;;;;19.88;9.30;;;;;;;;;;5044828;28;20032;-73
2024/02/14 09:36:58;;;;;;;20.42;9.38;;;;;;;;;;5051235;28;20041;-73
2024/02/14 09:39:45;;;;;;;19.52;9.50;;;;;;;;;;5051531;28;20074;-72
2024/02/14 09:43:03;;;;;;;18.45;9.63;;;;;;;;;;5047414;28;20017;-73
2024/02/14 09:45:50;;;;;;;22.30;9.85;;;;;;;;;;5055194;28;20036;-73
2024/02/14 09:48:37;;;;;;;20.88;9.13;;;;;;;;;;5048022;28;20029;-73
2024/02/14 09:51:23;;;;;;;23.25;10.30;;;;;;;;;;5036096;28;20036;-73
2024/02/14 09:54:10;;;;;;;20.52;9.80;;;;;;;;;;5053396;28;20463;-74
2024/02/14 09:56:57;;;;;;;22.42;11.18;;;;;;;;;;5040020;28;20076;-73
2024/02/14 09:59:44;;;;;;;22.38;8.98;;;;;;;;;;5026652;28;20032;-74
2024/02/14 10:02:30;;;;;;;20.98;9.50;;;;;;;;;;5040255;28;20055;-73
2024/02/14 10:05:16;;;;;;;23.00;10.25;;;;;;;;;;5055191;28;20025;-74
2024/02/14 10:08:01;;;;;;;22.67;10.13;;;;;;;;;;5054056;28;20408;-73
2024/02/14 10:10:47;;;;;;;23.10;11.02;;;;;;;;;;5039599;28;20029;-73
2024/02/14 10:13:34;;;;;;;20.45;9.40;;;;;;;;;;5039983;28;20474;-73
2024/02/14 10:16:19;;;;;;;21.52;9.88;;;;;;;;;;5055354;28;20028;-74
2024/02/14 10:19:08;;;;;;;21.13;9.88;;;;;;;;;;5039509;28;20441;-73
2024/02/14 10:22:00;;;;;;;21.05;9.90;;;;;;;;;;5054432;28;20063;-73
2024/02/14 10:24:46;;;;;;;24.92;10.05;;;;;;;;;;5026272;28;20111;-73
2024/02/14 10:27:32;;;;;;;24.00;10.35;;;;;;;;;;5028921;28;20104;-73
2024/02/14 10:30:18;;;;;;;21.38;9.13;;;;;;;;;;5054051;28;20130;-73
2024/02/14 10:33:04;;;;;;;21.65;9.48;;;;;;;;;;5046927;28;20029;-72
2024/02/14 10:35:50;;;;;;;20.92;9.55;;;;;;;;;;5039629;28;20406;-73
2024/02/14 10:38:36;;;;;;;18.80;8.95;;;;;;;;;;5037846;28;20025;-73
2024/02/14 10:41:22;;;;;;;21.13;9.23;;;;;;;;;;5052659;28;20028;-73
2024/02/14 10:44:10;;;;;;;23.55;9.40;;;;;;;;;;5019230;28;20013;-70
2024/02/14 10:46:59;;;;;;;20.58;8.68;;;;;;;;;;5024754;28;20044;-70
2024/02/14 10:49:45;;;;;;;19.70;8.77;;;;;;;;;;5040446;28;20037;-70
2024/02/14 10:52:33;;;;;;;18.67;7.93;;;;;;;;;;5038633;28;20056;-70
2024/02/14 10:55:20;;;;;;;20.65;9.18;;;;;;;;;;5038420;28;20120;-70
2024/02/14 10:58:07;;;;;;;22.40;8.05;;;;;;;;;;5039303;28;20025;-70
2024/02/14 11:00:53;;;;;;;20.27;8.88;;;;;;;;;;5039107;28;20055;-70
2024/02/14 11:03:40;;;;;;;15.48;7.60;;;;;;;;;;5053878;28;20033;-70
2024/02/14 11:06:26;;;;;;;18.45;8.75;;;;;;;;;;5033706;28;20074;-70
2024/02/14 11:09:12;;;;;;;17.88;9.05;;;;;;;;;;5005798;28;20102;-70
2024/02/14 11:12:02;;;;;;;19.40;8.95;;;;;;;;;;5038942;28;20037;-70
2024/02/14 11:14:52;;;;;;;17.50;8.50;;;;;;;;;;5053898;28;20469;-70
2024/02/14 11:17:40;;;;;;;19.27;8.23;;;;;;;;;;5033570;28;20140;-70
2024/02/14 11:20:34;;;;;;;18.95;8.60;;;;;;;;;;5032710;28;20030;-70
2024/02/14 11:23:23;;;;;;;15.57;7.15;;;;;;;;;;5038280;28;20071;-71
2024/02/14 11:26:15;;;;;;;16.38;7.22;;;;;;;;;;5045109;28;20029;-70
2024/02/14 11:29:03;;;;;;;15.13;6.78;;;;;;;;;;5038406;28;20031;-70
2024/02/14 11:31:58;;;;;;;16.35;7.05;;;;;;;;;;5036534;28;20494;-70
2024/02/14 11:34:53;;;;;;;14.75;7.13;;;;;;;;;;5038364;28;20485;-70
2024/02/14 11:37:39;;;;;;;16.48;6.85;;;;;;;;;;5053295;28;20086;-70
2024/02/14 11:40:24;;;;;;;15.27;6.45;;;;;;;;;;5052057;28;20036;-70
2024/02/14 11:43:15;;;;;;;20.33;7.75;;;;;;;;;;5025091;28;20469;-70
2024/02/14 11:46:00;;;;;;;;;;;;;;;;;;5038483;28;20059;-70
2024/02/14 11:48:46;;;;;;;15.77;5.82;;;;;;;;;;5052924;28;19912;-70
2024/02/14 11:51:33;;;;;;;15.13;6.22;;;;;;;;;;5038851;28;20056;-70
2024/02/14 11:54:20;;;;;;;17.27;7.43;;;;;;;;;;5018027;28;20045;-70
2024/02/14 11:57:08;;;;;;;12.63;6.30;;;;;;;;;;5013929;28;20025;-70
2024/02/14 11:59:54;;;;;;;15.20;7.25;;;;;;;;;;5046507;28;20056;-70
2024/02/14 12:02:39;;;;;;;12.23;6.18;;;;;;;;;;5052106;28;20028;-70
2024/02/14 12:05:25;;;;;;;13.32;6.32;;;;;;;;;;5024209;28;20020;-70
2024/02/14 12:08:11;;;;;;;12.07;5.53;;;;;;;;;;5023019;28;20028;-69
2024/02/14 12:10:57;;;;;;;10.60;5.40;;;;;;;;;;5036424;28;20440;-70
2024/02/14 12:13:43;;;;;;;13.05;6.53;;;;;;;;;;5037812;28;20017;-72
2024/02/14 12:16:29;;;;;;;11.73;5.20;;;;;;;;;;5038751;28;20032;-72
2024/02/14 12:19:16;;;;;;;13.55;5.47;;;;;;;;;;5036542;28;20498;-73
2024/02/14 12:22:01;;;;;;;9.55;4.78;;;;;;;;;;5038769;28;20029;-73
2024/02/14 12:24:48;;;;;;;11.50;5.15;;;;;;;;;;5052147;28;20025;-72
2024/02/14 12:27:34;;;;;;;9.85;4.70;;;;;;;;;;5053025;28;20048;-72
2024/02/14 12:30:20;;;;;;;10.35;4.82;;;;;;;;;;5043275;28;20070;-72
2024/02/14 12:33:09;;;;;;;10.20;5.00;;;;;;;;;;5073151;28;20528;-73
2024/02/14 12:35:56;;;;;;;9.25;4.45;;;;;;;;;;5055538;28;20481;-73
2024/02/14 12:38:41;;;;;;;7.10;3.28;;;;;;;;;;5053330;28;20402;-72
2024/02/14 12:41:29;;;;;;;7.63;4.50;;;;;;;;;;5037888;28;20059;-72
2024/02/14 12:44:15;;;;;;;6.70;3.35;;;;;;;;;;5051729;28;20013;-72
2024/02/14 12:47:00;;;;;;;7.03;3.47;;;;;;;;;;5052766;28;20490;-73
2024/02/14 12:49:47;;;;;;;5.90;3.08;;;;;;;;;;5036954;28;20028;-73
2024/02/14 12:52:34;;;;;;;7.78;2.67;;;;;;;;;;5037071;28;20021;-72
2024/02/14 12:55:25;;;;;;;6.22;3.17;;;;;;;;;;5038127;28;20029;-73
2024/02/14 12:58:10;;;;;;;7.30;2.58;;;;;;;;;;5052362;28;20028;-73
2024/02/14 13:00:56;;;;;;;6.05;2.78;;;;;;;;;;5037977;28;20055;-73
2024/02/14 13:03:42;;;;;;;6.05;2.90;;;;;;;;;;5052418;28;20440;-72
2024/02/14 13:06:31;;;;;;;5.57;2.30;;;;;;;;;;5036941;28;20031;-72
2024/02/14 13:09:17;;;;;;;4.25;2.58;;;;;;;;;;5052175;28;20037;-72
2024/02/14 13:12:03;;;;;;;5.43;2.47;;;;;;;;;;5036624;28;20071;-73
2024/02/14 13:14:48;;;;;;;8.15;3.10;;;;;;;;;;5052048;28;20068;-72
2024/02/14 13:17:34;;;;;;;7.15;2.85;;;;;;;;;;5039590;28;20025;-72
2024/02/14 13:20:20;;;;;;;7.50;3.47;;;;;;;;;;5040520;28;20025;-72
2024/02/14 13:23:09;;;;;;;9.05;3.28;;;;;;;;;;5054043;28;20017;-72
2024/02/14 13:25:54;;;;;;;9.10;3.60;;;;;;;;;;5042200;28;20512;-72
2024/02/14 13:28:43;;;;;;;6.22;3.42;;;;;;;;;;5040933;28;20043;-73
2024/02/14 13:31:28;;;;;;;6.28;3.28;;;;;;;;;;5024475;28;20075;-73
2024/02/14 13:34:15;;;;;;;9.98;4.38;;;;;;;;;;5048017;28;20028;-72
2024/02/14 13:37:02;;;;;;;7.50;2.83;;;;;;;;;;5050255;28;20061;-73
2024/02/14 13:39:49;;;;;;;10.75;2.97;;;;;;;;;;5040774;28;20045;-72
2024/02/14 13:42:34;;;;;;;8.63;4.38;;;;;;;;;;5036556;28;20079;-72
2024/02/14 13:45:20;;;;;;;6.95;4.00;;;;;;;;;;5037211;28;20021;-72
2024/02/14 13:48:07;;;;;;;7.65;3.20;;;;;;;;;;5054995;28;20047;-72
2024/02/14 13:50:53;;;;;;;8.07;3.97;;;;;;;;;;5055593;28;20487;-72
2024/02/14 13:53:39;;;;;;;7.70;3.40;;;;;;;;;;5054577;28;20049;-72
2024/02/14 13:56:24;;;;;;;9.98;5.78;;;;;;;;;;5040852;28;20031;-72
2024/02/14 13:59:13;;;;;;;6.93;3.65;;;;;;;;;;5040236;28;20119;-72
2024/02/14 14:01:58;;;;;;;8.77;3.75;;;;;;;;;;5040433;28;20021;-72
2024/02/14 14:04:44;;;;;;;6.63;3.67;;;;;;;;;;5036038;28;20017;-71
2024/02/14 14:07:30;;;;;;;7.45;3.25;;;;;;;;;;5041940;28;20078;-70
2024/02/14 14:10:18;;;;;;;5.57;3.42;;;;;;;;;;5054987;28;20061;-70
2024/02/14 14:13:04;;;;;;;5.40;3.05;;;;;;;;;;5054708;28;20033;-70
2024/02/14 14:15:51;;;;;;;6.57;4.35;;;;;;;;;;5039297;28;20067;-70
2024/02/14 14:18:36;;;;;;;7.53;3.40;;;;;;;;;;5040404;28;20351;-71
2024/02/14 14:21:22;;;;;;;7.90;3.97;;;;;;;;;;5039806;28;20017;-70
2024/02/14 14:24:08;;;;;;;7.25;3.10;;;;;;;;;;5033457;28;20022;-70
2024/02/14 14:26:53;;;;;;;19.50;11.35;;;;;;;;;;5032951;28;20502;-70
2024/02/14 14:29:42;;;;;;;4.18;2.60;;;;;;;;;;5045707;28;20509;-70
2024/02/14 14:32:28;;;;;;;8.15;2.97;;;;;;;;;;5051167;28;20108;-70
2024/02/14 14:35:13;;;;;;;9.20;3.20;;;;;;;;;;5040682;28;20478;-70
2024/02/14 14:37:59;;;;;;;7.15;2.47;;;;;;;;;;5053184;28;20060;-70
2024/02/14 14:40:46;;;;;;;7.30;2.60;;;;;;;;;;5054745;28;20029;-70
2024/02/14 14:43:32;;;;;;;15.55;7.80;;;;;;;;;;5054214;28;20467;-70
2024/02/14 14:46:17;;;;;;;9.38;3.55;;;;;;;;;;5054900;28;20029;-70
2024/02/14 14:49:03;;;;;;;4.55;3.17;;;;;;;;;;5053683;28;20032;-70
2024/02/14 14:51:48;;;;;;;8.10;3.05;;;;;;;;;;5054848;28;20103;-70
2024/02/14 14:54:34;;;;;;;7.78;3.58;;;;;;;;;;5039209;28;20108;-70
2024/02/14 14:57:20;;;;;;;6.70;3.45;;;;;;;;;;5053731;28;20025;-70
2024/02/14 15:00:12;;;;;;;6.07;2.83;;;;;;;;;;5039464;28;20051;-70
2024/02/14 15:02:58;;;;;;;8.48;3.58;;;;;;;;;;5055074;28;20475;-70
2024/02/14 15:05:44;;;;;;;10.10;3.40;;;;;;;;;;5038497;28;20044;-70
2024/02/14 15:08:30;;;;;;;7.25;2.92;;;;;;;;;;5049259;28;20031;-70
2024/02/14 15:11:17;;;;;;;7.53;3.58;;;;;;;;;;5067571;28;21011;-70
2024/02/14 15:14:06;;;;;;;8.77;3.53;;;;;;;;;;5041585;28;20490;-70
2024/02/14 15:16:52;;;;;;;7.53;3.08;;;;;;;;;;5028165;28;20494;-70
2024/02/14 15:19:38;;;;;;;9.93;3.85;;;;;;;;;;5049708;28;20033;-70
2024/02/14 15:22:30;;;;;;;9.20;3.33;;;;;;;;;;5057162;23;20068;-69
2024/02/14 15:25:15;;;;;;;8.43;2.88;;;;;;;;;;5048967;28;20048;-70
2024/02/14 15:28:12;;;;;;;7.55;3.72;;;;;;;;;;5048177;28;20033;-70
2024/02/14 15:34:04;;;;;;;13.32;4.07;;;;;;;;;;5047384;28;20700;-70
2024/02/14 15:36:49;;;;;;;11.65;4.40;;;;;;;;;;5034495;28;20041;-70
2024/02/14 15:39:35;;;;;;;10.43;3.63;;;;;;;;;;5018977;28;20105;-72
2024/02/14 15:42:20;;;;;;;18.17;4.28;;;;;;;;;;5040324;28;20083;-72
2024/02/14 15:45:07;;;;;;;10.38;3.70;;;;;;;;;;5019894;28;20542;-72
2024/02/14 15:47:52;;;;;;;12.77;4.72;;;;;;;;;;5033914;28;20486;-72
2024/02/14 15:50:39;;;;;;;9.45;3.75;;;;;;;;;;5052516;28;20116;-73
2024/02/14 15:53:26;;;;;;;14.95;3.95;;;;;;;;;;5031650;28;20075;-72
2024/02/14 15:56:15;;;;;;;11.13;4.05;;;;;;;;;;5032672;28;20037;-72
2024/02/14 15:59:02;;;;;;;7.25;3.58;;;;;;;;;;5021667;28;20033;-71
2024/02/14 16:01:48;;;;;;;8.60;3.80;;;;;;;;;;5032702;28;20056;-72
2024/02/14 16:04:34;;;;;;;16.75;4.65;;;;;;;;;;5017899;28;20014;-73
2024/02/14 16:07:19;;;;;;;14.05;4.30;;;;;;;;;;5053221;28;20028;-72
2024/02/14 16:10:06;;;;;;;13.50;4.35;;;;;;;;;;5037270;28;20036;-73
2024/02/14 16:12:52;;;;;;;24.15;6.28;;;;;;;;;;5037154;28;20086;-72
2024/02/14 16:15:38;;;;;;;17.63;5.38;;;;;;;;;;5023526;28;20462;-72
2024/02/14 16:18:25;;;;;;;12.77;4.47;;;;;;;;;;5033606;28;20029;-69
2024/02/14 16:21:11;;;;;;;13.45;3.50;;;;;;;;;;5006782;28;20021;-69